Time;durP1;ratioP1;P1;durP2;ratioP2;P2;SDS_P1;SDS_P2;PMS_P1;PMS_P2;Temp;Humidity;BMP_temperature;BMP_pressure;BME280_temperature;BME280_humidity;BME280_pressure;Samples;Min_cycle;Max_cycle;Signal;HPM_P1;HPM_P2
2022/12/14 00:02:10;;;;;;;;;;;;;;;;;;2195705;59;1840;-77
2022/12/14 00:04:44;;;;;;;;;;;;;;;;;;2194702;59;1223;-77
2022/12/14 00:07:17;;;;;;;;;;;;;;;;;;2195193;67;1227;-78
2022/12/14 00:09:50;;;;;;;;;;;;;;;;;;2195555;59;1221;-78
2022/12/14 00:12:24;;;;;;;;;;;;;;;;;;2194698;59;1193;-78
2022/12/14 00:15:01;;;;;;;;;;;;;;;;;;2193072;59;1989;-77
2022/12/14 00:17:34;;;;;;;;;;;;;;;;;;2196130;67;1218;-78
2022/12/14 00:20:08;;;;;;;;;;;;;;;;;;2195209;67;1078;-79
2022/12/14 00:22:41;;;;;;;;;;;;;;;;;;2195810;67;1360;-77
2022/12/14 00:25:14;;;;;;;;;;;;;;;;;;2195507;59;1218;-78
2022/12/14 00:27:49;;;;;;;;;;;;;;;;;;2197039;59;1599;-78
2022/12/14 00:30:26;;;;;;;;;;;;;;;;;;2201935;67;1186;-77
2022/12/14 00:33:00;;;;;;;;;;;;;;;;;;2207481;59;1215;-76
2022/12/14 00:35:33;;;;;;;;;;;;;;;;;;2209135;59;4924;-76
2022/12/14 00:38:07;;;;;;;;;;;;;;;;;;2210724;59;1094;-77
2022/12/14 00:40:40;;;;;;;;;;;;;;;;;;2211506;67;1097;-76
2022/12/14 00:43:16;;;;;;;;;;;;;;;;;;2211792;67;1360;-79
2022/12/14 00:45:53;;;;;;;;;;;;;;;;;;2199819;59;1297;-78
2022/12/14 00:48:27;;;;;;;;;;;;;;;;;;2196747;59;2275;-78
2022/12/14 00:51:00;;;;;;;;;;;;;;;;;;2196252;59;1193;-76
2022/12/14 00:53:34;;;;;;;;;;;;;;;;;;2195903;59;1442;-78
2022/12/14 00:56:08;;;;;;;;;;;;;;;;;;2194177;67;1987;-77
2022/12/14 00:58:42;;;;;;;;;;;;;;;;;;2195586;59;1155;-77
2022/12/14 01:01:18;;;;;;;;;;;;;;;;;;2195781;59;1707;-77
2022/12/14 01:04:15;;;;;;;;;;;;;;;;;;2195241;59;1114;-78
2022/12/14 01:06:47;;;;;;;;;;;;;;;;;;2194826;59;1527;-78
2022/12/14 01:09:21;;;;;;;;;;;;;;;;;;2194287;59;1210;-77
2022/12/14 01:11:54;;;;;;;;;;;;;;;;;;2194283;59;1026;-77
2022/12/14 01:14:29;;;;;;;;;;;;;;;;;;2195041;59;1613;-77
2022/12/14 01:17:05;;;;;;;;;;;;;;;;;;2193972;67;1965;-77
2022/12/14 01:19:39;;;;;;;;;;;;;;;;;;2191649;67;1556;-77
2022/12/14 01:22:15;;;;;;;;;;;;;;;;;;2194729;59;1211;-76
2022/12/14 01:24:48;;;;;;;;;;;;;;;;;;2193540;59;1310;-78
2022/12/14 01:27:21;;;;;;;;;;;;;;;;;;2194624;67;1252;-78
2022/12/14 01:29:54;;;;;;;;;;;;;;;;;;2195299;59;1959;-77
2022/12/14 01:32:31;;;;;;;;;;;;;;;;;;2195152;67;1088;-77
2022/12/14 01:35:06;;;;;;;;;;;;;;;;;;2194287;59;1976;-77
2022/12/14 01:37:39;;;;;;;;;;;;;;;;;;2195169;59;1193;-78
2022/12/14 01:40:13;;;;;;;;;;;;;;;;;;2194696;59;1137;-78
2022/12/14 01:42:46;;;;;;;;;;;;;;;;;;2194597;67;1088;-78
2022/12/14 01:45:22;;;;;;;;;;;;;;;;;;2191917;60;1267;-78
2022/12/14 01:48:00;;;;;;;;;;;;;;;;;;2195310;59;2241;-78
2022/12/14 01:50:37;;;;;;;;;;;;;;;;;;2194543;59;1167;-78
2022/12/14 01:53:13;;;;;;;;;;;;;;;;;;2194968;59;1905;-77
2022/12/14 01:55:48;;;;;;;;;;;;;;;;;;2195450;67;1939;-77
2022/12/14 01:58:23;;;;;;;;;;;;;;;;;;2195038;59;1255;-78
2022/12/14 02:00:59;;;;;;;;;;;;;;;;;;2196175;59;1153;-77
2022/12/14 02:03:36;;;;;;;;;;;;;;;;;;2197098;67;1281;-77
2022/12/14 02:06:10;;;;;;;;;;;;;;;;;;2195556;59;1513;-77
2022/12/14 02:08:45;;;;;;;;;;;;;;;;;;2195714;59;1286;-78
2022/12/14 02:11:24;;;;;;;;;;;;;;;;;;2194168;59;1109;-77
2022/12/14 02:13:58;;;;;;;;;;;;;;;;;;2194507;67;1143;-77
2022/12/14 02:16:32;;;;;;;;;;;;;;;;;;2194541;59;1936;-77
2022/12/14 02:19:08;;;;;;;;;;;;;;;;;;2193887;59;1268;-78
2022/12/14 02:21:50;;;;;;;;;;;;;;;;;;2195640;59;1251;-77
2022/12/14 02:24:42;;;;;;;;;;;;;;;;;;2194870;67;1296;-78
2022/12/14 02:27:24;;;;;;;;;;;;;;;;;;2193958;60;1040;-78
2022/12/14 02:30:05;;;;;;;;;;;;;;;;;;2194643;59;1837;-76
2022/12/14 02:33:05;;;;;;;;;;;;;;;;;;2194202;67;1100;-77
2022/12/14 02:35:45;;;;;;;;;;;;;;;;;;2189398;59;1922;-77
2022/12/14 02:38:27;;;;;;;;;;;;;;;;;;2196371;59;1161;-78
2022/12/14 02:41:04;;;;;;;;;;;;;;;;;;2195460;67;1098;-77
2022/12/14 02:43:46;;;;;;;;;;;;;;;;;;2196607;67;1101;-77
2022/12/14 02:46:27;;;;;;;;;;;;;;;;;;2196327;59;1163;-78
2022/12/14 02:49:04;;;;;;;;;;;;;;;;;;2196319;59;2091;-77
2022/12/14 02:51:43;;;;;;;;;;;;;;;;;;2197453;67;1154;-77
2022/12/14 02:54:22;;;;;;;;;;;;;;;;;;2196051;67;1233;-78
2022/12/14 02:56:57;;;;;;;;;;;;;;;;;;2196137;67;1932;-78
2022/12/14 02:59:31;;;;;;;;;;;;;;;;;;2196478;59;1135;-79
2022/12/14 03:02:09;;;;;;;;;;;;;;;;;;2195901;59;1155;-79
2022/12/14 03:04:46;;;;;;;;;;;;;;;;;;2196307;67;1248;-78
2022/12/14 03:07:31;;;;;;;;;;;;;;;;;;2196207;67;1122;-78
2022/12/14 03:10:09;;;;;;;;;;;;;;;;;;2196172;67;1178;-77
2022/12/14 03:12:47;;;;;;;;;;;;;;;;;;2195802;67;1106;-79
2022/12/14 03:15:21;;;;;;;;;;;;;;;;;;2196013;59;1657;-78
2022/12/14 03:18:00;;;;;;;;;;;;;;;;;;2196300;59;1131;-78
2022/12/14 03:20:36;;;;;;;;;;;;;;;;;;2196710;59;1886;-78
2022/12/14 03:23:13;;;;;;;;;;;;;;;;;;2196157;67;1177;-78
2022/12/14 03:25:49;;;;;;;;;;;;;;;;;;2195518;59;1245;-78
2022/12/14 03:28:25;;;;;;;;;;;;;;;;;;2195319;59;1780;-78
2022/12/14 03:31:02;;;;;;;;;;;;;;;;;;2196560;59;1240;-77
2022/12/14 03:33:40;;;;;;;;;;;;;;;;;;2196403;59;1139;-78
2022/12/14 03:36:16;;;;;;;;;;;;;;;;;;2196101;67;1934;-79
2022/12/14 03:38:52;;;;;;;;;;;;;;;;;;2194038;59;1269;-78
2022/12/14 03:41:30;;;;;;;;;;;;;;;;;;2196230;67;1083;-78
2022/12/14 03:44:13;;;;;;;;;;;;;;;;;;2196284;67;1383;-77
2022/12/14 03:46:53;;;;;;;;;;;;;;;;;;2196654;59;1335;-79
2022/12/14 03:49:39;;;;;;;;;;;;;;;;;;2196477;59;1238;-78
2022/12/14 03:52:19;;;;;;;;;;;;;;;;;;2196195;59;1153;-77
2022/12/14 03:54:55;;;;;;;;;;;;;;;;;;2197258;67;1219;-77
2022/12/14 03:57:38;;;;;;;;;;;;;;;;;;2196295;60;1978;-78
2022/12/14 04:00:15;;;;;;;;;;;;;;;;;;2195150;59;1133;-77
2022/12/14 04:02:51;;;;;;;;;;;;;;;;;;2193482;60;1182;-77
2022/12/14 04:05:34;;;;;;;;;;;;;;;;;;2196638;59;1121;-78
2022/12/14 04:08:11;;;;;;;;;;;;;;;;;;2197271;67;1086;-79
2022/12/14 04:19:28;;;;;;;;;;;;;;;;;;2194684;67;1017;-79
2022/12/14 04:22:08;;;;;;;;;;;;;;;;;;2197297;67;1193;-79
2022/12/14 04:27:37;;;;;;;;;;;;;;;;;;2194603;60;1121;-79
2022/12/14 04:30:11;;;;;;;;;;;;;;;;;;2196843;59;1611;-78
2022/12/14 04:32:46;;;;;;;;;;;;;;;;;;2196552;67;1257;-79
2022/12/14 04:35:22;;;;;;;;;;;;;;;;;;2195038;59;1527;-80
2022/12/14 04:38:01;;;;;;;;;;;;;;;;;;2194569;59;1928;-79
2022/12/14 04:40:41;;;;;;;;;;;;;;;;;;2198409;67;1145;-79
2022/12/14 04:43:20;;;;;;;;;;;;;;;;;;2199699;59;1124;-79
2022/12/14 04:45:57;;;;;;;;;;;;;;;;;;2198692;59;1254;-79
2022/12/14 04:48:35;;;;;;;;;;;;;;;;;;2198186;59;2280;-79
2022/12/14 04:51:13;;;;;;;;;;;;;;;;;;2196763;59;1232;-78
2022/12/14 04:53:51;;;;;;;;;;;;;;;;;;2198943;60;1116;-79
2022/12/14 04:56:27;;;;;;;;;;;;;;;;;;2199768;67;1974;-79
2022/12/14 04:59:00;;;;;;;;;;;;;;;;;;2198967;59;1243;-78
2022/12/14 05:01:42;;;;;;;;;;;;;;;;;;2195157;59;1377;-78
2022/12/14 05:04:20;;;;;;;;;;;;;;;;;;2198771;59;1250;-78
2022/12/14 05:06:59;;;;;;;;;;;;;;;;;;2196385;67;1080;-79
2022/12/14 05:09:39;;;;;;;;;;;;;;;;;;2198997;59;1208;-79
2022/12/14 05:12:19;;;;;;;;;;;;;;;;;;2197940;59;1187;-80
2022/12/14 05:14:56;;;;;;;;;;;;;;;;;;2198280;59;1747;-79
2022/12/14 05:17:29;;;;;;;;;;;;;;;;;;2198040;59;1936;-79
2022/12/14 05:20:03;;;;;;;;;;;;;;;;;;2195328;60;1332;-79
2022/12/14 05:22:37;;;;;;;;;;;;;;;;;;2198994;67;1064;-79
2022/12/14 05:25:16;;;;;;;;;;;;;;;;;;2198716;59;1240;-78
2022/12/14 05:27:50;;;;;;;;;;;;;;;;;;2198971;59;1772;-78
2022/12/14 05:30:26;;;;;;;;;;;;;;;;;;2197682;59;1208;-78
2022/12/14 05:33:01;;;;;;;;;;;;;;;;;;2199037;59;1092;-78
2022/12/14 05:35:38;;;;;;;;;;;;;;;;;;2197195;59;1297;-78
2022/12/14 05:38:12;;;;;;;;;;;;;;;;;;2196408;59;1957;-78
2022/12/14 05:40:48;;;;;;;;;;;;;;;;;;2198628;59;1286;-78
2022/12/14 05:43:22;;;;;;;;;;;;;;;;;;2197449;67;1048;-78
2022/12/14 05:46:01;;;;;;;;;;;;;;;;;;2195547;59;1340;-79
2022/12/14 05:48:36;;;;;;;;;;;;;;;;;;2197668;59;2391;-78
2022/12/14 05:51:13;;;;;;;;;;;;;;;;;;2196773;59;1298;-79
2022/12/14 05:53:46;;;;;;;;;;;;;;;;;;2196533;67;1103;-79
2022/12/14 05:56:23;;;;;;;;;;;;;;;;;;2197536;59;1918;-79
2022/12/14 05:58:57;;;;;;;;;;;;;;;;;;2197690;67;1148;-78
2022/12/14 06:01:31;;;;;;;;;;;;;;;;;;2197995;67;1085;-79
2022/12/14 06:04:07;;;;;;;;;;;;;;;;;;2198384;67;1095;-78
2022/12/14 06:06:40;;;;;;;;;;;;;;;;;;2195330;59;1272;-78
2022/12/14 06:09:17;;;;;;;;;;;;;;;;;;2198766;59;1138;-79
2022/12/14 06:11:53;;;;;;;;;;;;;;;;;;2198160;59;1147;-79
2022/12/14 06:17:16;;;;;;;;;;;;;;;;;;2200987;59;1971;-78
2022/12/14 06:19:50;;;;;;;;;;;;;;;;;;2199909;67;993;-79
2022/12/14 06:22:25;;;;;;;;;;;;;;;;;;2198892;67;1107;-78
2022/12/14 06:24:58;;;;;;;;;;;;;;;;;;2196931;59;1277;-78
2022/12/14 06:27:36;;;;;;;;;;;;;;;;;;2199216;60;1292;-79
2022/12/14 06:30:10;;;;;;;;;;;;;;;;;;2198765;59;2085;-79
2022/12/14 06:32:44;;;;;;;;;;;;;;;;;;2198942;67;1002;-78
2022/12/14 06:35:18;;;;;;;;;;;;;;;;;;2198162;59;1500;-78
2022/12/14 06:37:55;;;;;;;;;;;;;;;;;;2200127;59;2024;-78
2022/12/14 06:40:32;;;;;;;;;;;;;;;;;;2198803;67;1150;-79
2022/12/14 06:43:12;;;;;;;;;;;;;;;;;;2198966;67;1020;-78
2022/12/14 06:45:45;;;;;;;;;;;;;;;;;;2196333;59;1271;-79
2022/12/14 06:48:19;;;;;;;;;;;;;;;;;;2194516;59;2180;-78
2022/12/14 06:50:53;;;;;;;;;;;;;;;;;;2199094;59;1635;-79
2022/12/14 06:53:28;;;;;;;;;;;;;;;;;;2197303;59;1199;-78
2022/12/14 06:56:08;;;;;;;;;;;;;;;;;;2196009;59;1290;-78
2022/12/14 06:58:45;;;;;;;;;;;;;;;;;;2195632;60;1933;-79
2022/12/14 07:01:20;;;;;;;;;;;;;;;;;;2199259;59;1184;-79
2022/12/14 07:03:58;;;;;;;;;;;;;;;;;;2195770;59;1170;-78
2022/12/14 07:06:35;;;;;;;;;;;;;;;;;;2198240;59;1749;-78
2022/12/14 07:09:10;;;;;;;;;;;;;;;;;;2198783;67;1149;-78
2022/12/14 07:11:43;;;;;;;;;;;;;;;;;;2196714;59;1265;-79
2022/12/14 07:14:21;;;;;;;;;;;;;;;;;;2200497;59;1519;-78
2022/12/14 07:16:55;;;;;;;;;;;;;;;;;;2197660;59;1983;-78
2022/12/14 07:19:29;;;;;;;;;;;;;;;;;;2199376;59;1214;-79
2022/12/14 07:22:03;;;;;;;;;;;;;;;;;;2198027;59;1946;-79
2022/12/14 07:24:37;;;;;;;;;;;;;;;;;;2197782;59;2003;-78
2022/12/14 07:27:10;;;;;;;;;;;;;;;;;;2193787;59;1972;-78
2022/12/14 07:29:48;;;;;;;;;;;;;;;;;;2199082;59;2011;-79
2022/12/14 07:32:21;;;;;;;;;;;;;;;;;;2198252;67;1158;-79
2022/12/14 07:34:54;;;;;;;;;;;;;;;;;;2198054;59;1617;-79
2022/12/14 07:37:28;;;;;;;;;;;;;;;;;;2198546;59;1921;-80
2022/12/14 07:40:04;;;;;;;;;;;;;;;;;;2198030;59;1140;-79
2022/12/14 07:42:39;;;;;;;;;;;;;;;;;;2200015;59;1791;-79
2022/12/14 07:45:17;;;;;;;;;;;;;;;;;;2199247;59;1216;-78
2022/12/14 07:47:50;;;;;;;;;;;;;;;;;;2199075;59;2392;-78
2022/12/14 07:50:25;;;;;;;;;;;;;;;;;;2198741;59;2001;-79
2022/12/14 07:53:00;;;;;;;;;;;;;;;;;;2198806;59;979;-79
2022/12/14 07:55:37;;;;;;;;;;;;;;;;;;2200692;59;1922;-78
2022/12/14 07:58:12;;;;;;;;;;;;;;;;;;2199286;60;1967;-77
2022/12/14 08:00:51;;;;;;;;;;;;;;;;;;2200761;67;1130;-79
2022/12/14 08:03:25;;;;;;;;;;;;;;;;;;2199326;59;1120;-78
2022/12/14 08:05:59;;;;;;;;;;;;;;;;;;2200017;59;1781;-78
2022/12/14 08:08:36;;;;;;;;;;;;;;;;;;2199465;59;1265;-78
2022/12/14 08:11:13;;;;;;;;;;;;;;;;;;2199747;59;1166;-78
2022/12/14 08:13:47;;;;;;;;;;;;;;;;;;2200506;59;1213;-79
2022/12/14 08:16:25;;;;;;;;;;;;;;;;;;2198250;59;1653;-78
2022/12/14 08:18:59;;;;;;;;;;;;;;;;;;2202538;59;1963;-78
2022/12/14 08:21:32;;;;;;;;;;;;;;;;;;2201209;59;1786;-79
2022/12/14 08:24:12;;;;;;;;;;;;;;;;;;2198854;59;1734;-79
2022/12/14 08:26:45;;;;;;;;;;;;;;;;;;2200194;59;1748;-79
2022/12/14 08:29:20;;;;;;;;;;;;;;;;;;2199205;59;1652;-78
2022/12/14 08:31:59;;;;;;;;;;;;;;;;;;2202398;67;1017;-79
2022/12/14 08:34:32;;;;;;;;;;;;;;;;;;2201115;59;1173;-78
2022/12/14 08:37:06;;;;;;;;;;;;;;;;;;2201154;59;1709;-79
2022/12/14 08:39:39;;;;;;;;;;;;;;;;;;2201832;59;1936;-79
2022/12/14 08:42:12;;;;;;;;;;;;;;;;;;2202342;59;1241;-79
2022/12/14 08:44:46;;;;;;;;;;;;;;;;;;2204236;67;1263;-79
2022/12/14 08:47:25;;;;;;;;;;;;;;;;;;2203941;59;2221;-79
2022/12/14 08:49:59;;;;;;;;;;;;;;;;;;2204813;59;1100;-79
2022/12/14 08:52:36;;;;;;;;;;;;;;;;;;2202106;59;1456;-79
2022/12/14 08:55:10;;;;;;;;;;;;;;;;;;2204138;59;1180;-79
2022/12/14 08:57:49;;;;;;;;;;;;;;;;;;2205842;67;1903;-79
2022/12/14 09:00:23;;;;;;;;;;;;;;;;;;2205139;67;1083;-79
2022/12/14 09:02:59;;;;;;;;;;;;;;;;;;2205833;67;1073;-80
2022/12/14 09:05:33;;;;;;;;;;;;;;;;;;2205902;59;1170;-79
2022/12/14 09:08:07;;;;;;;;;;;;;;;;;;2207011;59;1397;-80
2022/12/14 09:10:40;;;;;;;;;;;;;;;;;;2206482;59;1073;-80
2022/12/14 09:13:13;;;;;;;;;;;;;;;;;;2205058;59;1251;-80
2022/12/14 09:15:47;;;;;;;;;;;;;;;;;;2206510;59;1664;-80
2022/12/14 09:18:23;;;;;;;;;;;;;;;;;;2205914;59;1876;-80
2022/12/14 09:20:57;;;;;;;;;;;;;;;;;;2203026;67;1036;-80
2022/12/14 09:23:34;;;;;;;;;;;;;;;;;;2206959;59;1694;-80
2022/12/14 09:26:08;;;;;;;;;;;;;;;;;;2207067;59;1173;-80
2022/12/14 09:28:43;;;;;;;;;;;;;;;;;;2207582;59;1566;-81
2022/12/14 09:31:17;;;;;;;;;;;;;;;;;;2207027;59;1072;-80
2022/12/14 09:33:53;;;;;;;;;;;;;;;;;;2207741;59;1190;-81
2022/12/14 09:36:30;;;;;;;;;;;;;;;;;;2206478;59;1357;-81
2022/12/14 09:39:03;;;;;;;;;;;;;;;;;;2206636;59;1905;-81
2022/12/14 09:41:44;;;;;;;;;;;;;;;;;;2207307;59;1400;-80
2022/12/14 09:44:22;;;;;;;;;;;;;;;;;;2206972;59;1180;-81
2022/12/14 09:47:01;;;;;;;;;;;;;;;;;;2206473;59;1543;-81
2022/12/14 09:49:39;;;;;;;;;;;;;;;;;;2203666;59;24623;-82
2022/12/14 09:52:15;;;;;;;;;;;;;;;;;;2202536;59;26681;-81
2022/12/14 09:54:51;;;;;;;;;;;;;;;;;;2204036;59;48856;-80
2022/12/14 09:57:29;;;;;;;;;;;;;;;;;;2204133;59;29105;-82
2022/12/14 10:00:02;;;;;;;;;;;;;;;;;;2098311;59;7264229;-81
2022/12/14 10:02:41;;;;;;;;;;;;;;;;;;2201766;60;27742;-81
2022/12/14 10:05:29;;;;;;;;;;;;;;;;;;2204322;59;27249;-81
2022/12/14 10:08:09;;;;;;;;;;;;;;;;;;2200971;59;31845;-81
2022/12/14 10:10:49;;;;;;;;;;;;;;;;;;2204220;59;26163;-81
2022/12/14 10:13:28;;;;;;;;;;;;;;;;;;2203020;59;54971;-81
2022/12/14 10:16:05;;;;;;;;;;;;;;;;;;2204400;59;26801;-81
2022/12/14 10:18:51;;;;;;;;;;;;;;;;;;2203659;59;28536;-82
2022/12/14 10:21:28;;;;;;;;;;;;;;;;;;2202648;59;121201;-83
2022/12/14 10:24:08;;;;;;;;;;;;;;;;;;2205007;59;152495;-81
2022/12/14 10:26:45;;;;;;;;;;;;;;;;;;2203772;59;23248;-82
2022/12/14 10:29:25;;;;;;;;;;;;;;;;;;2206409;59;30060;-82
2022/12/14 10:32:05;;;;;;;;;;;;;;;;;;2201683;59;136116;-83
2022/12/14 10:34:44;;;;;;;;;;;;;;;;;;2203415;59;36420;-82
2022/12/14 10:37:24;;;;;;;;;;;;;;;;;;2205677;59;31330;-83
2022/12/14 10:40:07;;;;;;;;;;;;;;;;;;2204476;64;131802;-82
2022/12/14 10:42:45;;;;;;;;;;;;;;;;;;2205696;59;38423;-83
2022/12/14 10:45:24;;;;;;;;;;;;;;;;;;2204942;59;79380;-82
2022/12/14 10:48:07;;;;;;;;;;;;;;;;;;2199704;59;196854;-82
2022/12/14 10:50:47;;;;;;;;;;;;;;;;;;2163162;59;2803550;-83
2022/12/14 10:56:23;;;;;;;;;;;;;;;;;;1938644;59;17447551;-82
2022/12/14 10:59:20;;;;;;;;;;;;;;;;;;2192928;59;61199;-81
2022/12/14 11:01:55;;;;;;;;;;;;;;;;;;2185700;59;22822;-83
2022/12/14 11:04:31;;;;;;;;;;;;;;;;;;2078807;59;7789309;-82
2022/12/14 11:07:08;;;;;;;;;;;;;;;;;;2202685;59;21031;-82
2022/12/14 11:09:44;;;;;;;;;;;;;;;;;;2201630;59;25681;-83
2022/12/14 11:12:23;;;;;;;;;;;;;;;;;;2203748;59;17915;-82
2022/12/14 11:15:01;;;;;;;;;;;;;;;;;;2201510;59;28644;-82
2022/12/14 11:17:37;;;;;;;;;;;;;;;;;;2089430;59;7675743;-83
2022/12/14 11:20:21;;;;;;;;;;;;;;;;;;2167411;59;2172943;-83
2022/12/14 11:22:55;;;;;;;;;;;;;;;;;;2193810;64;40332;-83
2022/12/14 11:25:31;;;;;;;;;;;;;;;;;;2192979;59;21982;-82
2022/12/14 11:28:18;;;;;;;;;;;;;;;;;;2193781;59;32495;-81
2022/12/14 11:31:01;;;;;;;;;;;;;;;;;;2193774;59;52829;-82
2022/12/14 11:33:36;;;;;;;;;;;;;;;;;;2193691;59;21178;-84
2022/12/14 11:36:11;;;;;;;;;;;;;;;;;;2190677;59;22800;-82
2022/12/14 11:38:44;;;;;;;;;;;;;;;;;;2194264;59;21715;-83
2022/12/14 11:41:22;;;;;;;;;;;;;;;;;;2193777;59;26014;-82
2022/12/14 11:44:22;;;;;;;;;;;;;;;;;;2194517;59;22458;-84
2022/12/14 11:46:56;;;;;;;;;;;;;;;;;;2105859;59;6030646;-84
2022/12/14 11:49:31;;;;;;;;;;;;;;;;;;2156574;59;2532380;-82
2022/12/14 11:52:11;;;;;;;;;;;;;;;;;;2196543;59;21390;-82
2022/12/14 11:54:48;;;;;;;;;;;;;;;;;;2196347;59;21984;-83
2022/12/14 11:57:26;;;;;;;;;;;;;;;;;;2194321;59;20074;-83
2022/12/14 12:00:06;;;;;;;;;;;;;;;;;;2197681;59;16195;-84
2022/12/14 12:02:46;;;;;;;;;;;;;;;;;;2195932;59;31891;-84
2022/12/14 12:05:22;;;;;;;;;;;;;;;;;;2195178;59;17810;-83
2022/12/14 12:07:58;;;;;;;;;;;;;;;;;;2196136;64;21946;-83
2022/12/14 12:10:39;;;;;;;;;;;;;;;;;;2192392;59;26126;-82
2022/12/14 12:13:22;;;;;;;;;;;;;;;;;;2191968;59;17941;-82
2022/12/14 12:16:02;;;;;;;;;;;;;;;;;;2192311;59;19268;-83
2022/12/14 12:18:38;;;;;;;;;;;;;;;;;;2193491;59;23561;-82
2022/12/14 12:21:14;;;;;;;;;;;;;;;;;;2195323;64;17015;-82
2022/12/14 12:23:50;;;;;;;;;;;;;;;;;;2193368;64;95941;-82
2022/12/14 12:26:26;;;;;;;;;;;;;;;;;;2196724;59;22956;-83
2022/12/14 12:29:06;;;;;;;;;;;;;;;;;;2196933;59;26386;-83
2022/12/14 12:31:45;;;;;;;;;;;;;;;;;;2158082;59;2567189;-83
2022/12/14 12:34:23;;;;;;;;;;;;;;;;;;2196449;59;21821;-83
2022/12/14 12:36:58;;;;;;;;;;;;;;;;;;2159016;59;2369618;-82
2022/12/14 12:39:33;;;;;;;;;;;;;;;;;;2194091;64;28775;-82
2022/12/14 12:42:15;;;;;;;;;;;;;;;;;;2193903;64;27988;-82
2022/12/14 12:44:54;;;;;;;;;;;;;;;;;;2196125;59;27407;-84
2022/12/14 12:51:08;;;;;;;;;;;;;;;;;;2198031;59;945;-82
2022/12/14 12:53:43;;;;;;;;;;;;;;;;;;2196155;59;16701;-82
2022/12/14 12:56:18;;;;;;;;;;;;;;;;;;2194503;59;34682;-83
2022/12/14 12:58:55;;;;;;;;;;;;;;;;;;2193963;59;17473;-81
2022/12/14 13:01:32;;;;;;;;;;;;;;;;;;2194955;59;19480;-83
2022/12/14 13:04:09;;;;;;;;;;;;;;;;;;2194210;64;18355;-83
2022/12/14 13:06:50;;;;;;;;;;;;;;;;;;2189619;59;64816;-82
2022/12/14 13:09:30;;;;;;;;;;;;;;;;;;2193766;59;16358;-83
2022/12/14 13:12:04;;;;;;;;;;;;;;;;;;2194019;59;20472;-85
2022/12/14 13:14:41;;;;;;;;;;;;;;;;;;2198391;59;23429;-84
2022/12/14 13:17:23;;;;;;;;;;;;;;;;;;2160047;59;2283600;-83
2022/12/14 13:19:58;;;;;;;;;;;;;;;;;;2193957;64;22064;-84
2022/12/14 13:22:35;;;;;;;;;;;;;;;;;;2193644;64;19928;-81
2022/12/14 13:25:14;;;;;;;;;;;;;;;;;;2192909;59;21142;-82
2022/12/14 13:28:06;;;;;;;;;;;;;;;;;;2191396;59;21209;-82
2022/12/14 13:30:45;;;;;;;;;;;;;;;;;;2193201;59;16318;-82
2022/12/14 13:33:33;;;;;;;;;;;;;;;;;;2196688;59;78382;-81
2022/12/14 13:36:33;;;;;;;;;;;;;;;;;;2188890;59;22948;-83
2022/12/14 13:39:25;;;;;;;;;;;;;;;;;;2190851;59;16672;-83
2022/12/14 13:42:04;;;;;;;;;;;;;;;;;;2193391;59;19490;-81
2022/12/14 13:44:51;;;;;;;;;;;;;;;;;;2191602;59;21081;-83
2022/12/14 13:47:31;;;;;;;;;;;;;;;;;;2189173;59;29861;-83
2022/12/14 13:50:06;;;;;;;;;;;;;;;;;;2188846;59;42289;-83
2022/12/14 13:52:42;;;;;;;;;;;;;;;;;;2191732;64;19694;-83
2022/12/14 13:55:35;;;;;;;;;;;;;;;;;;2188772;59;19271;-83
2022/12/14 13:58:16;;;;;;;;;;;;;;;;;;2190797;59;19605;-82
2022/12/14 14:00:58;;;;;;;;;;;;;;;;;;2189891;59;22120;-82
2022/12/14 14:03:48;;;;;;;;;;;;;;;;;;2191766;64;18409;-82
2022/12/14 14:06:24;;;;;;;;;;;;;;;;;;2188771;59;61873;-82
2022/12/14 14:09:01;;;;;;;;;;;;;;;;;;2191867;64;17110;-82
2022/12/14 14:12:02;;;;;;;;;;;;;;;;;;2192489;59;19225;-82
2022/12/14 14:14:51;;;;;;;;;;;;;;;;;;2184181;59;33828;-82
2022/12/14 14:17:29;;;;;;;;;;;;;;;;;;2189911;59;18857;-82
2022/12/14 14:20:06;;;;;;;;;;;;;;;;;;2191008;64;18819;-83
2022/12/14 14:22:39;;;;;;;;;;;;;;;;;;2192190;59;32877;-83
2022/12/14 14:25:27;;;;;;;;;;;;;;;;;;2190085;59;21217;-81
2022/12/14 14:28:01;;;;;;;;;;;;;;;;;;2191422;59;50421;-82
2022/12/14 14:30:37;;;;;;;;;;;;;;;;;;2192965;64;22443;-82
2022/12/14 14:33:27;;;;;;;;;;;;;;;;;;2191682;59;22785;-83
2022/12/14 14:36:19;;;;;;;;;;;;;;;;;;2190710;59;39527;-82
2022/12/14 14:38:53;;;;;;;;;;;;;;;;;;2190521;59;22700;-82
2022/12/14 14:41:29;;;;;;;;;;;;;;;;;;2191882;64;23951;-82
2022/12/14 14:44:05;;;;;;;;;;;;;;;;;;2192202;64;17704;-82
2022/12/14 14:46:44;;;;;;;;;;;;;;;;;;2193398;59;35239;-84
2022/12/14 14:49:23;;;;;;;;;;;;;;;;;;2188899;59;49006;-83
2022/12/14 14:52:19;;;;;;;;;;;;;;;;;;2188260;59;22602;-82
2022/12/14 14:54:57;;;;;;;;;;;;;;;;;;2191703;59;16931;-83
2022/12/14 14:57:37;;;;;;;;;;;;;;;;;;2189931;59;21070;-83
2022/12/14 15:00:12;;;;;;;;;;;;;;;;;;2189749;59;25542;-82
2022/12/14 15:02:48;;;;;;;;;;;;;;;;;;2192721;59;21581;-82
2022/12/14 15:05:24;;;;;;;;;;;;;;;;;;2159053;59;2300197;-82
2022/12/14 15:08:01;;;;;;;;;;;;;;;;;;2192192;60;35394;-82
2022/12/14 15:10:38;;;;;;;;;;;;;;;;;;2193463;59;40900;-82
2022/12/14 15:13:19;;;;;;;;;;;;;;;;;;2189668;59;87374;-82
2022/12/14 15:15:55;;;;;;;;;;;;;;;;;;2190943;59;23776;-83
2022/12/14 15:18:29;;;;;;;;;;;;;;;;;;2196237;67;32366;-83
2022/12/14 15:21:05;;;;;;;;;;;;;;;;;;2198968;59;22008;-83
2022/12/14 15:23:46;;;;;;;;;;;;;;;;;;2195012;59;23584;-83
2022/12/14 15:26:21;;;;;;;;;;;;;;;;;;2194495;64;22158;-85
2022/12/14 15:28:55;;;;;;;;;;;;;;;;;;2194932;59;24700;-84
2022/12/14 15:31:30;;;;;;;;;;;;;;;;;;2193714;60;71099;-83
2022/12/14 15:34:04;;;;;;;;;;;;;;;;;;2195063;59;18428;-85
2022/12/14 15:36:40;;;;;;;;;;;;;;;;;;2193999;59;24306;-85
2022/12/14 15:39:36;;;;;;;;;;;;;;;;;;2193750;60;29697;-84
2022/12/14 15:42:14;;;;;;;;;;;;;;;;;;2156651;59;2582444;-83
2022/12/14 15:44:51;;;;;;;;;;;;;;;;;;2195401;59;23089;-83
2022/12/14 15:47:26;;;;;;;;;;;;;;;;;;2194588;59;29366;-83
2022/12/14 15:50:15;;;;;;;;;;;;;;;;;;2193650;59;31070;-83
2022/12/14 15:52:49;;;;;;;;;;;;;;;;;;2193242;59;16697;-84
2022/12/14 15:55:29;;;;;;;;;;;;;;;;;;2194496;60;20818;-84
2022/12/14 15:58:08;;;;;;;;;;;;;;;;;;2189795;59;36943;-84
2022/12/14 16:00:43;;;;;;;;;;;;;;;;;;2199093;59;17670;-84
2022/12/14 16:03:20;;;;;;;;;;;;;;;;;;2196886;59;32122;-83
2022/12/14 16:05:54;;;;;;;;;;;;;;;;;;2197985;59;26326;-82
2022/12/14 16:08:28;;;;;;;;;;;;;;;;;;2197621;59;23011;-83
2022/12/14 16:11:07;;;;;;;;;;;;;;;;;;2196353;59;35036;-84
2022/12/14 16:13:43;;;;;;;;;;;;;;;;;;2197146;64;17311;-83
2022/12/14 16:16:17;;;;;;;;;;;;;;;;;;2190812;59;46359;-84
2022/12/14 16:18:52;;;;;;;;;;;;;;;;;;2195622;64;18547;-84
2022/12/14 16:21:27;;;;;;;;;;;;;;;;;;2194378;60;19935;-83
2022/12/14 16:24:01;;;;;;;;;;;;;;;;;;2194847;59;54923;-82
2022/12/14 16:26:38;;;;;;;;;;;;;;;;;;2196446;59;21322;-83
2022/12/14 16:29:21;;;;;;;;;;;;;;;;;;2193936;59;15984;-83
2022/12/14 16:32:01;;;;;;;;;;;;;;;;;;2195043;64;24244;-83
2022/12/14 16:34:35;;;;;;;;;;;;;;;;;;2193692;59;17223;-83
2022/12/14 16:37:09;;;;;;;;;;;;;;;;;;2155756;59;2509683;-83
2022/12/14 16:39:48;;;;;;;;;;;;;;;;;;2190285;64;23878;-84
2022/12/14 16:42:27;;;;;;;;;;;;;;;;;;2193658;59;37515;-83
2022/12/14 16:45:01;;;;;;;;;;;;;;;;;;2195072;60;34029;-84
2022/12/14 16:47:53;;;;;;;;;;;;;;;;;;2195872;59;20338;-83
2022/12/14 16:50:27;;;;;;;;;;;;;;;;;;2195094;59;31492;-83
2022/12/14 16:53:15;;;;;;;;;;;;;;;;;;2192572;59;21730;-82
2022/12/14 16:56:02;;;;;;;;;;;;;;;;;;2194152;59;32959;-83
2022/12/14 16:58:39;;;;;;;;;;;;;;;;;;2156019;59;2565408;-83
2022/12/14 17:01:13;;;;;;;;;;;;;;;;;;2189030;59;21139;-82
2022/12/14 17:03:53;;;;;;;;;;;;;;;;;;2189398;59;62475;-82
2022/12/14 17:06:32;;;;;;;;;;;;;;;;;;2189775;59;27692;-82
2022/12/14 17:09:07;;;;;;;;;;;;;;;;;;2191103;60;22393;-82
2022/12/14 17:11:42;;;;;;;;;;;;;;;;;;2193207;59;23136;-82
2022/12/14 17:14:19;;;;;;;;;;;;;;;;;;2192548;59;21954;-84
2022/12/14 17:16:57;;;;;;;;;;;;;;;;;;2191422;59;36505;-83
2022/12/14 17:19:32;;;;;;;;;;;;;;;;;;2192896;64;19733;-82
2022/12/14 17:22:07;;;;;;;;;;;;;;;;;;2191896;64;30195;-82
2022/12/14 17:24:42;;;;;;;;;;;;;;;;;;2194907;59;45104;-82
2022/12/14 17:27:16;;;;;;;;;;;;;;;;;;2189151;59;23864;-81
2022/12/14 17:29:53;;;;;;;;;;;;;;;;;;2193319;59;30701;-82
2022/12/14 17:32:28;;;;;;;;;;;;;;;;;;2192673;59;17178;-82
2022/12/14 17:35:03;;;;;;;;;;;;;;;;;;2191478;59;15850;-83
2022/12/14 17:37:37;;;;;;;;;;;;;;;;;;2189324;59;20593;-84
2022/12/14 17:40:10;;;;;;;;;;;;;;;;;;2190688;59;20546;-81
2022/12/14 17:42:46;;;;;;;;;;;;;;;;;;2190533;64;16486;-81
2022/12/14 17:45:24;;;;;;;;;;;;;;;;;;2190806;59;43583;-83
2022/12/14 17:47:57;;;;;;;;;;;;;;;;;;2190320;59;30398;-82
2022/12/14 17:50:31;;;;;;;;;;;;;;;;;;2188318;59;21855;-82
2022/12/14 17:53:04;;;;;;;;;;;;;;;;;;2189889;59;24247;-82
2022/12/14 17:55:37;;;;;;;;;;;;;;;;;;2192102;59;21520;-83
2022/12/14 17:58:11;;;;;;;;;;;;;;;;;;2189914;64;17783;-81
2022/12/14 18:01:03;;;;;;;;;;;;;;;;;;2192601;59;22665;-82
2022/12/14 18:03:38;;;;;;;;;;;;;;;;;;2190267;59;58534;-82
2022/12/14 18:06:14;;;;;;;;;;;;;;;;;;2188798;59;21169;-81
2022/12/14 18:08:49;;;;;;;;;;;;;;;;;;2191334;59;22589;-83
2022/12/14 18:11:23;;;;;;;;;;;;;;;;;;2190377;59;26995;-82
2022/12/14 18:13:56;;;;;;;;;;;;;;;;;;2191491;59;19687;-83
2022/12/14 18:16:32;;;;;;;;;;;;;;;;;;2192591;59;19982;-82
2022/12/14 18:19:06;;;;;;;;;;;;;;;;;;2191833;59;20297;-81
2022/12/14 18:21:40;;;;;;;;;;;;;;;;;;2192749;59;19225;-80
2022/12/14 18:24:16;;;;;;;;;;;;;;;;;;2191273;59;32831;-81